sensor_id;sensor_type;location;lat;lon;timestamp;pressure;altitude;pressure_sealevel;temperature;humidity
44481;BME280;30184;42.018;23.670;2023-01-25T00:02:31;92354.16;;;3.03;92.64
44481;BME280;30184;42.018;23.670;2023-01-25T00:05:02;92356.84;;;3.06;92.61
44481;BME280;30184;42.018;23.670;2023-01-25T00:07:31;92386.00;;;3.08;92.44
44481;BME280;30184;42.018;23.670;2023-01-25T00:10:03;92360.22;;;2.99;91.59
44481;BME280;30184;42.018;23.670;2023-01-25T00:12:32;92127.53;;;1.33;91.17
44481;BME280;30184;42.018;23.670;2023-01-25T00:15:02;92321.28;;;2.79;89.85
44481;BME280;30184;42.018;23.670;2023-01-25T00:17:31;92360.72;;;3.05;87.50
44481;BME280;30184;42.018;23.670;2023-01-25T00:20:01;92388.91;;;2.95;86.69
44481;BME280;30184;42.018;23.670;2023-01-25T00:22:31;92362.56;;;3.01;85.90
44481;BME280;30184;42.018;23.670;2023-01-25T00:25:02;92235.41;;;1.90;85.83
44481;BME280;30184;42.018;23.670;2023-01-25T00:27:32;92363.25;;;2.98;85.03
44481;BME280;30184;42.018;23.670;2023-01-25T00:30:02;92275.13;;;2.37;84.60
44481;BME280;30184;42.018;23.670;2023-01-25T00:32:52;92357.03;;;2.90;84.51
44481;BME280;30184;42.018;23.670;2023-01-25T00:35:22;92354.72;;;2.89;84.68
44481;BME280;30184;42.018;23.670;2023-01-25T00:37:52;92380.72;;;2.85;84.67
44481;BME280;30184;42.018;23.670;2023-01-25T00:40:26;92345.13;;;2.88;84.39
44481;BME280;30184;42.018;23.670;2023-01-25T00:42:55;92350.81;;;2.83;83.80
44481;BME280;30184;42.018;23.670;2023-01-25T00:45:27;92344.69;;;2.82;83.96
44481;BME280;30184;42.018;23.670;2023-01-25T00:47:56;92344.31;;;2.84;84.14
44481;BME280;30184;42.018;23.670;2023-01-25T00:50:26;92338.91;;;2.80;83.67
44481;BME280;30184;42.018;23.670;2023-01-25T00:52:56;92360.69;;;2.79;83.83
44481;BME280;30184;42.018;23.670;2023-01-25T00:55:27;92347.72;;;2.81;83.47
44481;BME280;30184;42.018;23.670;2023-01-25T00:57:57;92370.00;;;2.85;84.01
44481;BME280;30184;42.018;23.670;2023-01-25T01:00:26;92309.88;;;2.33;84.45
44481;BME280;30184;42.018;23.670;2023-01-25T01:02:57;92352.03;;;2.89;84.20
44481;BME280;30184;42.018;23.670;2023-01-25T01:05:26;92348.22;;;2.90;83.52
44481;BME280;30184;42.018;23.670;2023-01-25T01:07:56;92345.19;;;2.91;83.29
44481;BME280;30184;42.018;23.670;2023-01-25T01:10:27;92336.78;;;2.93;83.06
44481;BME280;30184;42.018;23.670;2023-01-25T01:12:56;92347.94;;;2.95;83.20
44481;BME280;30184;42.018;23.670;2023-01-25T01:15:26;92300.00;;;2.63;83.01
44481;BME280;30184;42.018;23.670;2023-01-25T01:17:56;92338.69;;;2.92;82.46
44481;BME280;30184;42.018;23.670;2023-01-25T01:20:26;92343.69;;;2.94;82.80
44481;BME280;30184;42.018;23.670;2023-01-25T01:22:55;92313.50;;;2.71;82.74
44481;BME280;30184;42.018;23.670;2023-01-25T01:25:26;92343.72;;;2.97;82.85
44481;BME280;30184;42.018;23.670;2023-01-25T01:27:56;92342.59;;;2.98;82.55
44481;BME280;30184;42.018;23.670;2023-01-25T01:30:26;92340.28;;;2.97;81.73
44481;BME280;30184;42.018;23.670;2023-01-25T01:32:55;92232.38;;;2.17;81.71
44481;BME280;30184;42.018;23.670;2023-01-25T01:35:25;92375.28;;;2.81;81.64
44481;BME280;30184;42.018;23.670;2023-01-25T01:37:54;92330.19;;;2.87;81.99
44481;BME280;30184;42.018;23.670;2023-01-25T01:40:23;92327.09;;;2.85;82.19
44481;BME280;30184;42.018;23.670;2023-01-25T01:43:15;92320.81;;;2.74;82.48
44481;BME280;30184;42.018;23.670;2023-01-25T01:45:52;92305.78;;;2.66;82.88
44481;BME280;30184;42.018;23.670;2023-01-25T01:48:33;92244.72;;;2.22;82.77
44481;BME280;30184;42.018;23.670;2023-01-25T01:51:12;92330.16;;;2.83;82.67
44481;BME280;30184;42.018;23.670;2023-01-25T01:53:50;92329.91;;;2.66;82.42
44481;BME280;30184;42.018;23.670;2023-01-25T01:56:27;92329.38;;;2.83;82.52
44481;BME280;30184;42.018;23.670;2023-01-25T01:59:03;92196.81;;;1.91;82.25
44481;BME280;30184;42.018;23.670;2023-01-25T02:01:34;92258.28;;;2.36;81.83
44481;BME280;30184;42.018;23.670;2023-01-25T02:04:05;92312.06;;;2.77;81.76
44481;BME280;30184;42.018;23.670;2023-01-25T02:06:40;92321.31;;;2.83;81.57
44481;BME280;30184;42.018;23.670;2023-01-25T02:09:15;92328.03;;;2.70;81.47
44481;BME280;30184;42.018;23.670;2023-01-25T02:11:47;92330.06;;;2.76;82.00
44481;BME280;30184;42.018;23.670;2023-01-25T02:14:19;92305.47;;;2.71;81.97
44481;BME280;30184;42.018;23.670;2023-01-25T02:16:49;92330.16;;;2.83;81.83
44481;BME280;30184;42.018;23.670;2023-01-25T02:19:26;92308.03;;;2.63;81.83
44481;BME280;30184;42.018;23.670;2023-01-25T02:22:00;92318.22;;;2.81;81.85
44481;BME280;30184;42.018;23.670;2023-01-25T02:24:35;92324.38;;;2.81;82.15
44481;BME280;30184;42.018;23.670;2023-01-25T02:27:09;92316.84;;;2.64;82.18
44481;BME280;30184;42.018;23.670;2023-01-25T02:29:39;92316.19;;;2.71;82.39
44481;BME280;30184;42.018;23.670;2023-01-25T02:32:09;92308.88;;;2.68;82.36
44481;BME280;30184;42.018;23.670;2023-01-25T02:34:38;92297.13;;;2.49;82.57
44481;BME280;30184;42.018;23.670;2023-01-25T02:37:12;92334.22;;;2.74;82.71
44481;BME280;30184;42.018;23.670;2023-01-25T02:39:42;92200.25;;;1.91;82.72
44481;BME280;30184;42.018;23.670;2023-01-25T02:42:13;92324.63;;;2.73;82.79
44481;BME280;30184;42.018;23.670;2023-01-25T02:44:43;92227.22;;;2.05;82.73
44481;BME280;30184;42.018;23.670;2023-01-25T02:47:13;92249.78;;;2.04;83.16
44481;BME280;30184;42.018;23.670;2023-01-25T02:49:43;92326.97;;;2.74;83.08
44481;BME280;30184;42.018;23.670;2023-01-25T02:52:13;92308.09;;;2.67;82.81
44481;BME280;30184;42.018;23.670;2023-01-25T02:54:42;92335.44;;;2.53;83.26
44481;BME280;30184;42.018;23.670;2023-01-25T02:57:14;92303.88;;;2.66;83.10
44481;BME280;30184;42.018;23.670;2023-01-25T02:59:44;92323.50;;;2.74;83.03
44481;BME280;30184;42.018;23.670;2023-01-25T03:02:15;92319.59;;;2.68;83.15
44481;BME280;30184;42.018;23.670;2023-01-25T03:04:45;92315.31;;;2.63;83.59
44481;BME280;30184;42.018;23.670;2023-01-25T03:07:15;92315.63;;;2.58;84.02
44481;BME280;30184;42.018;23.670;2023-01-25T03:09:44;92301.97;;;2.40;84.22
44481;BME280;30184;42.018;23.670;2023-01-25T03:12:15;92324.03;;;2.56;84.11
44481;BME280;30184;42.018;23.670;2023-01-25T03:14:45;92320.22;;;2.57;83.90
44481;BME280;30184;42.018;23.670;2023-01-25T03:17:14;92230.13;;;1.93;83.42
44481;BME280;30184;42.018;23.670;2023-01-25T03:19:45;92237.13;;;2.01;83.60
44481;BME280;30184;42.018;23.670;2023-01-25T03:22:15;92314.84;;;2.57;83.34
44481;BME280;30184;42.018;23.670;2023-01-25T03:24:45;92339.47;;;2.40;83.25
44481;BME280;30184;42.018;23.670;2023-01-25T03:27:17;92241.34;;;2.02;82.96
44481;BME280;30184;42.018;23.670;2023-01-25T03:30:07;92322.16;;;2.60;82.94
44481;BME280;30184;42.018;23.670;2023-01-25T03:32:37;92314.81;;;1.82;82.52
44481;BME280;30184;42.018;23.670;2023-01-25T03:35:10;92307.34;;;2.40;82.64
44481;BME280;30184;42.018;23.670;2023-01-25T03:37:39;92286.63;;;2.37;82.44
44481;BME280;30184;42.018;23.670;2023-01-25T03:40:10;92316.78;;;2.60;82.19
44481;BME280;30184;42.018;23.670;2023-01-25T03:42:45;92308.38;;;2.58;82.26
44481;BME280;30184;42.018;23.670;2023-01-25T03:45:14;92203.91;;;1.79;82.32
44481;BME280;30184;42.018;23.670;2023-01-25T03:47:44;92308.41;;;2.62;82.57
44481;BME280;30184;42.018;23.670;2023-01-25T03:50:14;92313.00;;;2.61;82.81
44481;BME280;30184;42.018;23.670;2023-01-25T03:52:45;92302.69;;;2.63;82.65
44481;BME280;30184;42.018;23.670;2023-01-25T03:55:40;92287.66;;;2.55;82.73
44481;BME280;30184;42.018;23.670;2023-01-25T03:58:11;92253.63;;;2.30;82.62
44481;BME280;30184;42.018;23.670;2023-01-25T04:00:41;92303.47;;;2.64;82.70
44481;BME280;30184;42.018;23.670;2023-01-25T04:03:12;92308.03;;;2.63;82.32
44481;BME280;30184;42.018;23.670;2023-01-25T04:05:42;92302.31;;;2.65;82.47
44481;BME280;30184;42.018;23.670;2023-01-25T04:08:12;92300.06;;;2.67;82.39
44481;BME280;30184;42.018;23.670;2023-01-25T04:10:42;92308.13;;;2.71;82.51
44481;BME280;30184;42.018;23.670;2023-01-25T04:13:15;92308.91;;;2.71;82.46
44481;BME280;30184;42.018;23.670;2023-01-25T04:15:45;92312.78;;;2.74;82.79
44481;BME280;30184;42.018;23.670;2023-01-25T04:18:26;92312.00;;;2.73;83.90
44481;BME280;30184;42.018;23.670;2023-01-25T04:20:56;92312.69;;;2.67;85.13
44481;BME280;30184;42.018;23.670;2023-01-25T04:23:26;92326.13;;;2.70;85.81
44481;BME280;30184;42.018;23.670;2023-01-25T04:25:57;92325.72;;;2.68;86.46
44481;BME280;30184;42.018;23.670;2023-01-25T04:28:28;92324.97;;;1.96;87.03
44481;BME280;30184;42.018;23.670;2023-01-25T04:30:59;92329.91;;;2.66;87.47
44481;BME280;30184;42.018;23.670;2023-01-25T04:33:34;92330.31;;;2.68;87.63
44481;BME280;30184;42.018;23.670;2023-01-25T04:36:05;92413.38;;;2.68;87.89
44481;BME280;30184;42.018;23.670;2023-01-25T04:38:34;92328.41;;;2.68;87.84
44481;BME280;30184;42.018;23.670;2023-01-25T04:41:04;92314.84;;;2.57;87.72
44481;BME280;30184;42.018;23.670;2023-01-25T04:43:35;92334.13;;;2.67;87.91
44481;BME280;30184;42.018;23.670;2023-01-25T04:46:09;92340.63;;;2.66;88.12
44481;BME280;30184;42.018;23.670;2023-01-25T04:48:39;92341.75;;;2.65;88.42
44481;BME280;30184;42.018;23.670;2023-01-25T04:51:08;92347.88;;;2.65;88.69
44481;BME280;30184;42.018;23.670;2023-01-25T04:53:38;92339.06;;;2.65;88.79
44481;BME280;30184;42.018;23.670;2023-01-25T04:56:07;92336.38;;;2.65;88.78
44481;BME280;30184;42.018;23.670;2023-01-25T04:58:50;92414.78;;;2.58;88.97
44481;BME280;30184;42.018;23.670;2023-01-25T05:01:19;92381.94;;;2.65;89.11
44481;BME280;30184;42.018;23.670;2023-01-25T05:03:50;92370.50;;;2.68;89.04
44481;BME280;30184;42.018;23.670;2023-01-25T05:06:31;92103.41;;;1.06;88.21
44481;BME280;30184;42.018;23.670;2023-01-25T05:09:01;92335.28;;;2.69;87.78
44481;BME280;30184;42.018;23.670;2023-01-25T05:11:33;92326.44;;;2.65;87.44
44481;BME280;30184;42.018;23.670;2023-01-25T05:14:11;92332.16;;;2.63;87.28
44481;BME280;30184;42.018;23.670;2023-01-25T05:16:42;92330.59;;;2.62;87.39
44481;BME280;30184;42.018;23.670;2023-01-25T05:19:12;92327.22;;;2.66;87.44
44481;BME280;30184;42.018;23.670;2023-01-25T05:21:53;92356.34;;;2.67;87.47
44481;BME280;30184;42.018;23.670;2023-01-25T05:24:43;92268.44;;;2.23;87.64
44481;BME280;30184;42.018;23.670;2023-01-25T05:27:17;92337.94;;;2.66;88.17
44481;BME280;30184;42.018;23.670;2023-01-25T05:29:56;92323.00;;;2.65;88.28
44481;BME280;30184;42.018;23.670;2023-01-25T05:32:35;92331.03;;;2.65;88.60
44481;BME280;30184;42.018;23.670;2023-01-25T05:35:06;92335.25;;;2.66;88.42
44481;BME280;30184;42.018;23.670;2023-01-25T05:37:36;92327.94;;;2.62;88.78
44481;BME280;30184;42.018;23.670;2023-01-25T05:40:11;92295.63;;;2.25;89.30
44481;BME280;30184;42.018;23.670;2023-01-25T05:42:41;92229.06;;;1.75;89.35
44481;BME280;30184;42.018;23.670;2023-01-25T05:45:17;92328.69;;;2.59;89.44
44481;BME280;30184;42.018;23.670;2023-01-25T05:47:51;92301.84;;;2.33;89.47
44481;BME280;30184;42.018;23.670;2023-01-25T05:50:22;92340.53;;;2.58;89.89
44481;BME280;30184;42.018;23.670;2023-01-25T05:53:14;92282.66;;;2.28;89.97
44481;BME280;30184;42.018;23.670;2023-01-25T05:55:45;92333.63;;;2.57;89.96
44481;BME280;30184;42.018;23.670;2023-01-25T05:58:16;92330.56;;;2.59;90.15
44481;BME280;30184;42.018;23.670;2023-01-25T06:00:47;92335.16;;;2.58;90.35
44481;BME280;30184;42.018;23.670;2023-01-25T06:03:27;92324.84;;;2.60;90.20
44481;BME280;30184;42.018;23.670;2023-01-25T06:05:58;92243.78;;;2.11;89.75
44481;BME280;30184;42.018;23.670;2023-01-25T06:08:29;92327.22;;;2.66;89.73
44481;BME280;30184;42.018;23.670;2023-01-25T06:10:58;92262.41;;;2.30;89.62
44481;BME280;30184;42.018;23.670;2023-01-25T06:13:28;92319.97;;;2.70;89.62
44481;BME280;30184;42.018;23.670;2023-01-25T06:15:59;92318.84;;;2.71;89.61
44481;BME280;30184;42.018;23.670;2023-01-25T06:18:41;92322.72;;;2.73;89.35
44481;BME280;30184;42.018;23.670;2023-01-25T06:21:19;92321.59;;;2.74;88.37
44481;BME280;30184;42.018;23.670;2023-01-25T06:23:49;92312.53;;;2.56;88.09
44481;BME280;30184;42.018;23.670;2023-01-25T06:26:19;92355.22;;;2.68;87.81
44481;BME280;30184;42.018;23.670;2023-01-25T06:28:48;92309.25;;;2.70;87.61
44481;BME280;30184;42.018;23.670;2023-01-25T06:31:21;92323.19;;;2.79;87.19
44481;BME280;30184;42.018;23.670;2023-01-25T06:33:50;92298.59;;;2.73;87.29
44481;BME280;30184;42.018;23.670;2023-01-25T06:36:22;92323.59;;;2.81;87.81
44481;BME280;30184;42.018;23.670;2023-01-25T06:38:51;92317.53;;;2.84;87.91
44481;BME280;30184;42.018;23.670;2023-01-25T06:41:21;92341.56;;;2.80;87.93
44481;BME280;30184;42.018;23.670;2023-01-25T06:43:51;92290.94;;;2.72;87.85
44481;BME280;30184;42.018;23.670;2023-01-25T06:46:23;92318.44;;;2.95;87.80
44481;BME280;30184;42.018;23.670;2023-01-25T06:48:53;92316.56;;;2.99;87.86
44481;BME280;30184;42.018;23.670;2023-01-25T06:51:22;92322.75;;;3.03;87.30
44481;BME280;30184;42.018;23.670;2023-01-25T06:53:52;92324.25;;;3.00;82.55
44481;BME280;30184;42.018;23.670;2023-01-25T06:56:21;92315.06;;;3.02;80.66
44481;BME280;30184;42.018;23.670;2023-01-25T06:58:53;92323.53;;;3.04;79.47
44481;BME280;30184;42.018;23.670;2023-01-25T07:01:24;92327.38;;;3.06;79.97
44481;BME280;30184;42.018;23.670;2023-01-25T07:04:00;92329.69;;;3.08;81.21
44481;BME280;30184;42.018;23.670;2023-01-25T07:06:31;92325.09;;;3.08;81.66
44481;BME280;30184;42.018;23.670;2023-01-25T07:09:03;92291.91;;;2.86;80.83
44481;BME280;30184;42.018;23.670;2023-01-25T07:11:33;92326.72;;;3.16;79.62
44481;BME280;30184;42.018;23.670;2023-01-25T07:14:03;92307.09;;;3.09;79.70
44481;BME280;30184;42.018;23.670;2023-01-25T07:16:36;92319.94;;;3.22;80.47
44481;BME280;30184;42.018;23.670;2023-01-25T07:19:06;92327.63;;;3.27;80.56
44481;BME280;30184;42.018;23.670;2023-01-25T07:21:36;92356.78;;;3.29;78.36
44481;BME280;30184;42.018;23.670;2023-01-25T07:24:06;92371.81;;;3.33;77.90
44481;BME280;30184;42.018;23.670;2023-01-25T07:26:35;92315.16;;;3.09;75.77
44481;BME280;30184;42.018;23.670;2023-01-25T07:29:05;92347.16;;;3.24;75.75
44481;BME280;30184;42.018;23.670;2023-01-25T07:31:38;92336.94;;;3.33;75.50
44481;BME280;30184;42.018;23.670;2023-01-25T07:34:09;92323.78;;;3.25;74.82
44481;BME280;30184;42.018;23.670;2023-01-25T07:36:40;92364.56;;;3.37;74.69
44481;BME280;30184;42.018;23.670;2023-01-25T07:39:10;92327.34;;;3.32;74.80
44481;BME280;30184;42.018;23.670;2023-01-25T07:41:41;92330.88;;;3.40;75.42
44481;BME280;30184;42.018;23.670;2023-01-25T07:44:17;92324.69;;;3.36;74.27
44481;BME280;30184;42.018;23.670;2023-01-25T07:46:52;92320.72;;;3.26;73.76
44481;BME280;30184;42.018;23.670;2023-01-25T07:49:21;92329.19;;;3.28;74.96
44481;BME280;30184;42.018;23.670;2023-01-25T07:51:51;92325.38;;;3.29;74.81
44481;BME280;30184;42.018;23.670;2023-01-25T07:54:20;92215.72;;;2.57;74.69
44481;BME280;30184;42.018;23.670;2023-01-25T07:56:49;92327.34;;;3.32;75.33
44481;BME280;30184;42.018;23.670;2023-01-25T07:59:19;92331.56;;;3.33;74.74
44481;BME280;30184;42.018;23.670;2023-01-25T08:01:50;92334.91;;;3.27;74.88
44481;BME280;30184;42.018;23.670;2023-01-25T08:04:20;92084.44;;;1.64;74.35
44481;BME280;30184;42.018;23.670;2023-01-25T08:06:49;92327.50;;;3.17;74.65
44481;BME280;30184;42.018;23.670;2023-01-25T08:09:19;92331.78;;;3.21;74.89
44481;BME280;30184;42.018;23.670;2023-01-25T08:11:48;92323.03;;;3.24;75.19
44481;BME280;30184;42.018;23.670;2023-01-25T08:14:20;92339.50;;;3.26;74.19
44481;BME280;30184;42.018;23.670;2023-01-25T08:16:50;92337.28;;;3.32;74.59
44481;BME280;30184;42.018;23.670;2023-01-25T08:19:20;92330.88;;;3.40;74.61
44481;BME280;30184;42.018;23.670;2023-01-25T08:21:51;92352.78;;;3.46;74.10
44481;BME280;30184;42.018;23.670;2023-01-25T08:24:21;92322.03;;;3.40;73.42
44481;BME280;30184;42.018;23.670;2023-01-25T08:26:51;92317.81;;;3.38;73.98
44481;BME280;30184;42.018;23.670;2023-01-25T08:29:21;92317.13;;;3.45;74.08
44481;BME280;30184;42.018;23.670;2023-01-25T08:31:52;92314.13;;;3.50;73.96
44481;BME280;30184;42.018;23.670;2023-01-25T08:34:21;92319.50;;;3.54;73.32
44481;BME280;30184;42.018;23.670;2023-01-25T08:36:51;92285.66;;;3.42;72.85
44481;BME280;30184;42.018;23.670;2023-01-25T08:39:20;92340.97;;;3.54;72.95
44481;BME280;30184;42.018;23.670;2023-01-25T08:41:50;92303.50;;;3.61;73.06
44481;BME280;30184;42.018;23.670;2023-01-25T08:44:20;92311.97;;;3.66;72.77
44481;BME280;30184;42.018;23.670;2023-01-25T08:46:52;92312.19;;;3.17;72.40
44481;BME280;30184;42.018;23.670;2023-01-25T08:49:21;92310.72;;;3.57;72.72
44481;BME280;30184;42.018;23.670;2023-01-25T08:51:51;92302.69;;;3.57;72.59
44481;BME280;30184;42.018;23.670;2023-01-25T08:54:20;92304.94;;;3.55;72.84
44481;BME280;30184;42.018;23.670;2023-01-25T08:56:51;92302.28;;;3.55;73.10
44481;BME280;30184;42.018;23.670;2023-01-25T08:59:20;92300.06;;;3.64;73.05
44481;BME280;30184;42.018;23.670;2023-01-25T09:01:49;92299.75;;;3.69;72.71
44481;BME280;30184;42.018;23.670;2023-01-25T09:04:21;92255.78;;;3.44;72.78
44481;BME280;30184;42.018;23.670;2023-01-25T09:06:55;92318.31;;;3.85;72.96
44481;BME280;30184;42.018;23.670;2023-01-25T09:09:24;92298.78;;;3.91;71.06
44481;BME280;30184;42.018;23.670;2023-01-25T09:11:54;92300.34;;;3.92;70.96
44481;BME280;30184;42.018;23.670;2023-01-25T09:14:24;92289.19;;;3.90;70.74
44481;BME280;30184;42.018;23.670;2023-01-25T09:16:53;92294.91;;;3.85;71.76
44481;BME280;30184;42.018;23.670;2023-01-25T09:19:25;92263.72;;;3.70;71.93
44481;BME280;30184;42.018;23.670;2023-01-25T09:21:54;92293.91;;;4.00;70.72
44481;BME280;30184;42.018;23.670;2023-01-25T09:24:24;92277.47;;;4.05;71.89
44481;BME280;30184;42.018;23.670;2023-01-25T09:26:54;92148.28;;;3.26;71.22
44481;BME280;30184;42.018;23.670;2023-01-25T09:29:26;92274.78;;;4.09;70.98
44481;BME280;30184;42.018;23.670;2023-01-25T09:31:56;92198.84;;;3.64;71.19
44481;BME280;30184;42.018;23.670;2023-01-25T09:34:47;92283.34;;;4.22;71.28
44481;BME280;30184;42.018;23.670;2023-01-25T09:37:16;92251.00;;;4.07;70.33
44481;BME280;30184;42.018;23.670;2023-01-25T09:39:46;92255.16;;;4.01;69.80
44481;BME280;30184;42.018;23.670;2023-01-25T09:42:36;92264.47;;;4.15;69.88
44481;BME280;30184;42.018;23.670;2023-01-25T09:45:15;92268.00;;;4.22;70.36
44481;BME280;30184;42.018;23.670;2023-01-25T09:47:50;92257.66;;;4.24;69.79
44481;BME280;30184;42.018;23.670;2023-01-25T09:50:32;92249.16;;;4.19;69.25
44481;BME280;30184;42.018;23.670;2023-01-25T09:53:21;92253.81;;;4.25;69.45
44481;BME280;30184;42.018;23.670;2023-01-25T09:55:55;92248.44;;;4.25;69.64
44481;BME280;30184;42.018;23.670;2023-01-25T09:58:30;92234.22;;;4.21;70.17
44481;BME280;30184;42.018;23.670;2023-01-25T10:01:14;92247.31;;;4.30;69.80
44481;BME280;30184;42.018;23.670;2023-01-25T10:03:55;92190.63;;;3.91;69.71
44481;BME280;30184;42.018;23.670;2023-01-25T10:06:35;92262.13;;;4.09;70.31
44481;BME280;30184;42.018;23.670;2023-01-25T10:09:25;92193.97;;;3.77;70.91
44481;BME280;30184;42.018;23.670;2023-01-25T10:11:58;92233.69;;;4.01;70.98
44481;BME280;30184;42.018;23.670;2023-01-25T10:14:33;92229.16;;;4.12;70.75
44481;BME280;30184;42.018;23.670;2023-01-25T10:17:05;92218.50;;;4.23;70.16
44481;BME280;30184;42.018;23.670;2023-01-25T10:19:49;92206.94;;;4.19;70.83
44481;BME280;30184;42.018;23.670;2023-01-25T10:22:23;92215.88;;;4.34;70.49
44481;BME280;30184;42.018;23.670;2023-01-25T10:25:10;92213.50;;;4.22;70.84
44481;BME280;30184;42.018;23.670;2023-01-25T10:27:44;92207.31;;;4.18;71.14
44481;BME280;30184;42.018;23.670;2023-01-25T10:30:22;92239.13;;;4.12;70.64
44481;BME280;30184;42.018;23.670;2023-01-25T10:32:57;92030.06;;;2.97;70.79
44481;BME280;30184;42.018;23.670;2023-01-25T10:35:29;92202.31;;;4.12;71.32
44481;BME280;30184;42.018;23.670;2023-01-25T10:38:13;92198.09;;;4.19;71.90
44481;BME280;30184;42.018;23.670;2023-01-25T10:40:48;92112.47;;;3.48;71.13
44481;BME280;30184;42.018;23.670;2023-01-25T10:43:21;92179.97;;;4.01;71.26
44481;BME280;30184;42.018;23.670;2023-01-25T10:45:50;92191.88;;;4.04;71.58
44481;BME280;30184;42.018;23.670;2023-01-25T10:48:22;92072.31;;;3.11;71.41
44481;BME280;30184;42.018;23.670;2023-01-25T10:50:54;92162.31;;;3.53;71.81
44481;BME280;30184;42.018;23.670;2023-01-25T10:53:28;92210.09;;;3.81;71.52
44481;BME280;30184;42.018;23.670;2023-01-25T10:58:50;92210.63;;;3.97;71.84
44481;BME280;30184;42.018;23.670;2023-01-25T11:01:28;92137.31;;;3.89;71.46
44481;BME280;30184;42.018;23.670;2023-01-25T11:03:59;92163.13;;;4.08;70.99
44481;BME280;30184;42.018;23.670;2023-01-25T11:06:31;92098.91;;;3.78;71.94
44481;BME280;30184;42.018;23.670;2023-01-25T11:09:44;92122.13;;;4.18;71.31
44481;BME280;30184;42.018;23.670;2023-01-25T11:12:18;92127.97;;;4.31;70.88
44481;BME280;30184;42.018;23.670;2023-01-25T11:14:48;92131.50;;;4.49;70.32
44481;BME280;30184;42.018;23.670;2023-01-25T11:17:24;92126.53;;;4.55;70.27
44481;BME280;30184;42.018;23.670;2023-01-25T11:20:14;92127.72;;;4.64;69.77
44481;BME280;30184;42.018;23.670;2023-01-25T11:22:49;92110.06;;;4.67;69.37
44481;BME280;30184;42.018;23.670;2023-01-25T11:25:30;92061.78;;;3.94;69.32
44481;BME280;30184;42.018;23.670;2023-01-25T11:28:10;92112.75;;;4.63;69.81
44481;BME280;30184;42.018;23.670;2023-01-25T11:30:40;92117.38;;;4.66;68.97
44481;BME280;30184;42.018;23.670;2023-01-25T11:33:12;92070.75;;;4.23;69.66
44481;BME280;30184;42.018;23.670;2023-01-25T11:36:03;92101.91;;;4.35;69.80
44481;BME280;30184;42.018;23.670;2023-01-25T11:38:35;92103.75;;;4.27;70.31
44481;BME280;30184;42.018;23.670;2023-01-25T11:41:11;91997.91;;;3.56;70.93
44481;BME280;30184;42.018;23.670;2023-01-25T11:43:55;92039.16;;;3.95;70.50
44481;BME280;30184;42.018;23.670;2023-01-25T11:46:36;92090.69;;;4.22;70.82
44481;BME280;30184;42.018;23.670;2023-01-25T11:49:16;92139.47;;;4.31;70.86
44481;BME280;30184;42.018;23.670;2023-01-25T11:51:53;92085.38;;;4.33;70.61
44481;BME280;30184;42.018;23.670;2023-01-25T11:57:28;92066.50;;;4.15;71.59
44481;BME280;30184;42.018;23.670;2023-01-25T12:00:20;92074.56;;;4.22;71.18
44481;BME280;30184;42.018;23.670;2023-01-25T12:06:01;92060.75;;;4.17;71.69
44481;BME280;30184;42.018;23.670;2023-01-25T12:11:50;92059.22;;;4.23;70.72
44481;BME280;30184;42.018;23.670;2023-01-25T12:14:33;92061.47;;;4.06;70.71
44481;BME280;30184;42.018;23.670;2023-01-25T12:17:21;92105.16;;;4.00;70.47
44481;BME280;30184;42.018;23.670;2023-01-25T12:20:02;92051.09;;;4.08;70.96
44481;BME280;30184;42.018;23.670;2023-01-25T12:22:45;92053.00;;;4.04;70.93
44481;BME280;30184;42.018;23.670;2023-01-25T12:25:24;91922.25;;;3.22;71.28
44481;BME280;30184;42.018;23.670;2023-01-25T12:28:06;92055.75;;;4.19;70.92
44481;BME280;30184;42.018;23.670;2023-01-25T12:30:46;92051.16;;;4.16;70.33
44481;BME280;30184;42.018;23.670;2023-01-25T12:33:21;92068.69;;;3.95;71.02
44481;BME280;30184;42.018;23.670;2023-01-25T12:36:00;92047.63;;;4.01;71.38
44481;BME280;30184;42.018;23.670;2023-01-25T12:38:35;92066.00;;;3.95;70.93
44481;BME280;30184;42.018;23.670;2023-01-25T12:41:14;91964.13;;;3.44;71.41
44481;BME280;30184;42.018;23.670;2023-01-25T12:43:51;91947.19;;;3.29;71.53
44481;BME280;30184;42.018;23.670;2023-01-25T12:46:27;92041.31;;;3.72;71.95
44481;BME280;30184;42.018;23.670;2023-01-25T12:49:01;92005.19;;;3.52;72.11
44481;BME280;30184;42.018;23.670;2023-01-25T12:51:36;92046.28;;;3.66;72.38
44481;BME280;30184;42.018;23.670;2023-01-25T12:54:15;92036.69;;;3.65;73.06
44481;BME280;30184;42.018;23.670;2023-01-25T12:56:51;92017.19;;;3.17;72.62
44481;BME280;30184;42.018;23.670;2023-01-25T12:59:28;91952.84;;;3.14;72.30
44481;BME280;30184;42.018;23.670;2023-01-25T13:02:13;92160.50;;;3.64;72.11
44481;BME280;30184;42.018;23.670;2023-01-25T13:04:57;91904.09;;;2.46;72.99
44481;BME280;30184;42.018;23.670;2023-01-25T13:07:33;91976.19;;;3.13;72.50
44481;BME280;30184;42.018;23.670;2023-01-25T13:10:15;92051.63;;;3.59;71.87
44481;BME280;30184;42.018;23.670;2023-01-25T13:12:57;92081.00;;;3.42;72.91
44481;BME280;30184;42.018;23.670;2023-01-25T13:15:38;92067.63;;;3.49;73.47
44481;BME280;30184;42.018;23.670;2023-01-25T13:18:46;92078.69;;;3.44;73.24
44481;BME280;30184;42.018;23.670;2023-01-25T13:21:37;92096.69;;;3.40;73.63
44481;BME280;30184;42.018;23.670;2023-01-25T13:24:16;92082.47;;;3.35;73.52
44481;BME280;30184;42.018;23.670;2023-01-25T13:27:00;92078.63;;;3.33;73.22
44481;BME280;30184;42.018;23.670;2023-01-25T13:29:58;92086.25;;;3.27;73.29
44481;BME280;30184;42.018;23.670;2023-01-25T13:32:56;92094.97;;;3.17;73.36
44481;BME280;30184;42.018;23.670;2023-01-25T13:35:30;92096.88;;;3.13;73.53
44481;BME280;30184;42.018;23.670;2023-01-25T13:38:25;92090.63;;;3.02;74.26
44481;BME280;30184;42.018;23.670;2023-01-25T13:41:04;92087.13;;;2.98;74.54
44481;BME280;30184;42.018;23.670;2023-01-25T13:43:40;92036.66;;;2.63;75.20
44481;BME280;30184;42.018;23.670;2023-01-25T13:46:14;92070.16;;;2.83;75.67
44481;BME280;30184;42.018;23.670;2023-01-25T13:49:00;92061.25;;;2.72;75.55